createdAt,value
2019-03-27T00:00:11.406Z,25.20
2019-03-27T00:01:16.636Z,31.67
2019-03-27T00:02:23.883Z,27.73
2019-03-27T00:03:30.987Z,30.83
2019-03-27T00:04:35.838Z,35.13
2019-03-27T00:05:41.139Z,36.60
2019-03-27T00:06:47.622Z,28.40
2019-03-27T00:07:52.762Z,30.23
2019-03-27T00:08:57.594Z,30.37
2019-03-27T00:10:02.535Z,35.50
2019-03-27T00:11:07.627Z,28.07
2019-03-27T00:12:12.455Z,31.10
2019-03-27T00:13:17.331Z,30.80
2019-03-27T00:14:22.204Z,29.77
2019-03-27T00:15:27.137Z,32.60
2019-03-27T00:16:31.965Z,34.27
2019-03-27T00:17:36.889Z,33.70
2019-03-27T00:18:41.710Z,23.17
2019-03-27T00:19:46.599Z,23.30
2019-03-27T00:20:51.450Z,39.17
2019-03-27T00:21:56.280Z,31.37
2019-03-27T00:23:01.147Z,30.77
2019-03-27T00:24:05.988Z,24.63
2019-03-27T00:25:11.427Z,36.57
2019-03-27T00:26:16.369Z,26.37
2019-03-27T00:27:21.212Z,27.77
2019-03-27T00:28:26.059Z,27.83
2019-03-27T00:29:30.987Z,32.27
2019-03-27T00:30:35.855Z,32.27
2019-03-27T00:31:40.792Z,31.53
2019-03-27T00:32:45.703Z,29.83
2019-03-27T00:33:50.603Z,29.63
2019-03-27T00:34:55.453Z,31.63
2019-03-27T00:36:00.367Z,29.10
2019-03-27T00:37:05.281Z,25.37
2019-03-27T00:38:10.154Z,25.20
2019-03-27T00:39:14.992Z,26.63
2019-03-27T00:40:19.863Z,23.80
2019-03-27T00:41:24.755Z,25.80
2019-03-27T00:42:29.612Z,24.80
2019-03-27T00:43:34.537Z,34.47
2019-03-27T00:44:39.392Z,23.17
2019-03-27T00:45:44.258Z,30.50
2019-03-27T00:46:49.091Z,28.67
2019-03-27T00:47:53.935Z,28.27
2019-03-27T00:48:58.791Z,30.87
2019-03-27T00:50:03.813Z,25.23
2019-03-27T00:51:08.656Z,30.07
2019-03-27T00:52:13.487Z,33.33
2019-03-27T00:53:18.321Z,30.90
2019-03-27T00:54:23.244Z,28.47
2019-03-27T00:55:28.152Z,23.73
2019-03-27T00:56:33.004Z,34.10
2019-03-27T00:57:38.040Z,27.77
2019-03-27T00:58:42.975Z,36.57
2019-03-27T00:59:47.817Z,31.43
2019-03-27T01:01:08.599Z,27.20
2019-03-27T01:02:13.430Z,28.93
2019-03-27T01:03:18.382Z,27.20
2019-03-27T01:04:23.215Z,38.37
2019-03-27T01:05:28.110Z,36.27
2019-03-27T01:06:32.933Z,33.17
2019-03-27T01:07:37.870Z,32.73
2019-03-27T01:08:43.134Z,30.63
2019-03-27T01:09:48.024Z,36.23
2019-03-27T01:10:52.857Z,40.90
2019-03-27T01:11:57.704Z,34.10
2019-03-27T01:13:02.553Z,32.13
2019-03-27T01:14:07.552Z,26.70
2019-03-27T01:15:12.705Z,31.33
2019-03-27T01:16:17.665Z,28.23
2019-03-27T01:17:22.503Z,32.43
2019-03-27T01:18:27.335Z,24.83
2019-03-27T01:19:32.227Z,31.73
2019-03-27T01:20:37.134Z,32.07
2019-03-27T01:21:42.011Z,31.53
2019-03-27T01:22:46.899Z,31.50
2019-03-27T01:23:51.835Z,35.70
2019-03-27T01:24:56.698Z,39.13
2019-03-27T01:26:01.570Z,33.47
2019-03-27T01:27:06.931Z,34.33
2019-03-27T01:28:11.779Z,30.67
2019-03-27T01:29:16.647Z,31.40
2019-03-27T01:30:21.562Z,28.57
2019-03-27T01:31:26.491Z,33.93
2019-03-27T01:32:31.364Z,35.90
2019-03-27T01:33:36.280Z,36.47
2019-03-27T01:34:41.223Z,35.67
2019-03-27T01:35:46.070Z,37.97
2019-03-27T01:36:51.023Z,32.00
2019-03-27T01:37:55.858Z,32.47
2019-03-27T01:39:00.710Z,39.63
2019-03-27T01:40:06.221Z,37.30
2019-03-27T01:41:11.088Z,32.67
2019-03-27T01:42:15.942Z,31.00
2019-03-27T01:43:20.804Z,39.00
2019-03-27T01:44:25.691Z,35.70
2019-03-27T01:45:30.512Z,29.03
2019-03-27T01:46:35.356Z,33.07
2019-03-27T01:47:40.213Z,34.33
2019-03-27T01:48:45.040Z,32.00
2019-03-27T01:49:49.878Z,35.67
2019-03-27T01:50:54.949Z,38.40
2019-03-27T01:51:59.834Z,34.70
2019-03-27T01:53:04.667Z,29.50
2019-03-27T01:54:09.623Z,36.73
2019-03-27T01:55:14.480Z,31.77
2019-03-27T01:56:19.404Z,34.83
2019-03-27T01:57:24.325Z,41.93
2019-03-27T01:58:29.398Z,28.43
2019-03-27T01:59:34.251Z,34.30
2019-03-27T02:00:39.170Z,36.33
2019-03-27T02:01:44.008Z,37.57
2019-03-27T02:02:48.925Z,33.73
2019-03-27T02:03:53.774Z,40.63
2019-03-27T02:04:58.687Z,41.67
2019-03-27T02:06:03.545Z,37.43
2019-03-27T02:07:08.423Z,40.10
2019-03-27T02:08:13.338Z,25.37
2019-03-27T02:09:18.198Z,31.50
2019-03-27T02:10:23.174Z,32.93
2019-03-27T02:11:28.071Z,38.43
2019-03-27T02:12:33.005Z,32.97
2019-03-27T02:13:38.146Z,40.77
2019-03-27T02:14:43.008Z,31.40
2019-03-27T02:15:47.858Z,23.87
2019-03-27T02:16:52.718Z,38.90
2019-03-27T02:17:57.571Z,39.67
2019-03-27T02:19:02.440Z,35.50
2019-03-27T02:20:07.491Z,38.27
2019-03-27T02:21:12.552Z,27.73
2019-03-27T02:22:17.471Z,40.87
2019-03-27T02:23:22.435Z,38.23
2019-03-27T02:24:27.373Z,27.30
2019-03-27T02:25:32.311Z,30.57
2019-03-27T02:26:37.234Z,32.40
2019-03-27T02:27:42.079Z,35.03
2019-03-27T02:28:47.028Z,36.33
2019-03-27T02:29:51.869Z,26.73
2019-03-27T02:30:56.877Z,26.23
2019-03-27T02:32:01.743Z,25.20
2019-03-27T02:33:06.629Z,39.43
2019-03-27T02:34:11.647Z,32.73
2019-03-27T02:35:16.485Z,31.07
2019-03-27T02:36:21.324Z,36.50
2019-03-27T02:37:26.251Z,39.37
2019-03-27T02:38:31.159Z,36.63
2019-03-27T02:39:36.061Z,33.63
2019-03-27T02:40:40.944Z,33.33
2019-03-27T02:41:45.843Z,34.87
2019-03-27T02:42:50.744Z,28.87
2019-03-27T02:43:55.561Z,29.37
2019-03-27T02:45:00.511Z,24.93
2019-03-27T02:46:05.455Z,25.87
2019-03-27T02:47:10.315Z,27.97
2019-03-27T02:48:15.163Z,35.37
2019-03-27T02:49:22.906Z,39.17
2019-03-27T02:50:27.856Z,34.70
2019-03-27T02:51:32.723Z,35.20
2019-03-27T02:52:37.680Z,35.67
2019-03-27T02:53:42.713Z,31.23
2019-03-27T02:54:47.613Z,27.60
2019-03-27T02:55:52.508Z,35.23
2019-03-27T02:56:57.333Z,35.40
2019-03-27T02:58:02.236Z,35.03
2019-03-27T02:59:07.158Z,37.47
2019-03-27T03:00:13.022Z,30.57
2019-03-27T03:01:18.139Z,33.77
2019-03-27T03:02:23.038Z,32.53
2019-03-27T03:03:27.922Z,42.57
2019-03-27T03:04:32.915Z,41.50
2019-03-27T03:05:37.819Z,31.30
2019-03-27T03:06:42.664Z,42.00
2019-03-27T03:07:47.559Z,33.27
2019-03-27T03:08:52.401Z,30.07
2019-03-27T03:09:57.268Z,44.20
2019-03-27T03:11:02.229Z,33.33
2019-03-27T03:12:07.151Z,33.53
2019-03-27T03:13:12.031Z,41.50
2019-03-27T03:14:16.881Z,34.10
2019-03-27T03:15:24.250Z,38.47
2019-03-27T03:16:42.012Z,40.07
2019-03-27T03:17:35.768Z,37.27
2019-03-27T03:18:40.630Z,39.37
2019-03-27T03:19:45.459Z,35.40
2019-03-27T03:20:50.487Z,44.43
2019-03-27T03:21:55.404Z,38.37
2019-03-27T03:23:00.275Z,36.47
2019-03-27T03:24:05.131Z,41.27
2019-03-27T03:25:10.811Z,34.00
2019-03-27T03:26:15.833Z,35.87
2019-03-27T03:27:20.784Z,40.43
2019-03-27T03:28:25.687Z,43.87
2019-03-27T03:29:30.517Z,43.30
2019-03-27T03:30:35.588Z,39.03
2019-03-27T03:31:40.628Z,33.30
2019-03-27T03:32:45.527Z,39.63
2019-03-27T03:33:50.749Z,42.03
2019-03-27T03:34:55.679Z,34.47
2019-03-27T03:36:00.567Z,46.03
2019-03-27T03:37:05.590Z,42.53
2019-03-27T03:38:10.431Z,43.27
2019-03-27T03:39:15.529Z,33.47
2019-03-27T03:40:20.467Z,34.30
2019-03-27T03:41:25.314Z,40.40
2019-03-27T03:42:30.312Z,39.07
2019-03-27T03:43:35.178Z,40.93
2019-03-27T03:44:40.022Z,40.53
2019-03-27T03:45:44.867Z,39.87
2019-03-27T03:46:59.410Z,37.57
2019-03-27T03:47:56.448Z,32.13
2019-03-27T03:49:01.376Z,39.03
2019-03-27T03:50:06.677Z,43.00
2019-03-27T03:51:11.709Z,40.63
2019-03-27T03:52:18.115Z,38.67
2019-03-27T03:53:23.365Z,36.30
2019-03-27T03:54:28.525Z,30.70
2019-03-27T03:55:33.828Z,47.73
2019-03-27T03:56:41.338Z,33.23
2019-03-27T03:57:47.818Z,40.73
2019-03-27T03:58:54.479Z,41.43
2019-03-27T04:00:00.876Z,35.47
2019-03-27T04:01:06.568Z,43.17
2019-03-27T04:02:13.286Z,46.93
2019-03-27T04:03:19.021Z,37.37
2019-03-27T04:04:24.786Z,39.27
2019-03-27T04:05:29.639Z,38.43
2019-03-27T04:06:34.551Z,40.27
2019-03-27T04:07:39.415Z,36.10
2019-03-27T04:08:44.315Z,42.53
2019-03-27T04:09:49.232Z,40.10
2019-03-27T04:10:54.231Z,38.07
2019-03-27T04:11:59.282Z,37.63
2019-03-27T04:13:04.242Z,42.47
2019-03-27T04:14:09.196Z,40.43
2019-03-27T04:15:14.218Z,46.57
2019-03-27T04:16:19.239Z,36.23
2019-03-27T04:17:24.094Z,44.33
2019-03-27T04:18:29.039Z,46.33
2019-03-27T04:19:33.939Z,41.73
2019-03-27T04:20:38.783Z,44.60
2019-03-27T04:21:43.652Z,43.03
2019-03-27T04:22:48.490Z,36.47
2019-03-27T04:23:53.462Z,44.43
2019-03-27T04:24:58.431Z,45.87
2019-03-27T04:26:11.125Z,42.50
2019-03-27T04:27:10.169Z,43.57
2019-03-27T04:28:15.013Z,43.37
2019-03-27T04:29:20.041Z,42.27
2019-03-27T04:30:25.035Z,37.97
2019-03-27T04:31:30.164Z,39.50
2019-03-27T04:32:35.076Z,53.00
2019-03-27T04:33:40.764Z,49.37
2019-03-27T04:34:47.437Z,56.10
2019-03-27T04:35:52.315Z,49.03
2019-03-27T04:36:57.163Z,42.70
2019-03-27T04:38:02.059Z,43.83
2019-03-27T04:39:07.179Z,40.53
2019-03-27T04:40:12.198Z,53.03
2019-03-27T04:41:17.121Z,44.33
2019-03-27T04:42:21.980Z,38.63
2019-03-27T04:43:27.007Z,43.43
2019-03-27T04:44:31.963Z,45.73
2019-03-27T04:45:36.903Z,38.67
2019-03-27T04:46:41.733Z,50.07
2019-03-27T04:47:46.611Z,43.87
2019-03-27T04:48:51.443Z,41.87
2019-03-27T04:49:56.351Z,42.57
2019-03-27T04:51:01.261Z,45.97
2019-03-27T04:52:06.263Z,45.53
2019-03-27T04:53:11.140Z,42.00
2019-03-27T04:54:16.140Z,47.13
2019-03-27T04:55:21.077Z,43.53
2019-03-27T04:56:25.990Z,46.70
2019-03-27T04:57:30.915Z,40.13
2019-03-27T04:58:35.838Z,44.40
2019-03-27T04:59:40.739Z,53.53
2019-03-27T05:00:45.625Z,46.63
2019-03-27T05:01:50.547Z,45.77
2019-03-27T05:02:55.493Z,43.77
2019-03-27T05:04:00.971Z,51.90
2019-03-27T05:05:06.788Z,43.80
2019-03-27T05:06:11.667Z,44.20
2019-03-27T05:07:16.516Z,48.73
2019-03-27T05:08:21.540Z,47.57
2019-03-27T05:09:26.367Z,47.03
2019-03-27T05:10:33.514Z,50.60
2019-03-27T05:11:38.452Z,50.53
2019-03-27T05:12:43.466Z,47.43
2019-03-27T05:13:48.366Z,54.90
2019-03-27T05:14:53.405Z,58.30
2019-03-27T05:15:58.388Z,37.50
2019-03-27T05:17:03.423Z,43.77
2019-03-27T05:18:08.460Z,39.33
2019-03-27T05:19:13.453Z,42.90
2019-03-27T05:20:18.325Z,39.67
2019-03-27T05:21:32.618Z,51.20
2019-03-27T05:22:41.132Z,42.30
2019-03-27T05:23:46.818Z,40.43
2019-03-27T05:24:51.650Z,44.87
2019-03-27T05:25:56.538Z,42.37
2019-03-27T05:27:01.374Z,55.47
2019-03-27T05:28:09.439Z,43.37
2019-03-27T05:29:14.942Z,44.80
2019-03-27T05:30:33.908Z,43.77
2019-03-27T05:31:38.759Z,43.17
2019-03-27T05:32:43.703Z,43.13
2019-03-27T05:33:48.632Z,44.20
2019-03-27T05:34:53.601Z,46.97
2019-03-27T05:35:58.571Z,49.43
2019-03-27T05:37:03.402Z,50.80
2019-03-27T05:38:08.361Z,46.80
2019-03-27T05:39:14.686Z,44.87
2019-03-27T05:40:19.780Z,44.37
2019-03-27T05:41:24.872Z,50.30
2019-03-27T05:42:29.990Z,43.20
2019-03-27T05:43:34.864Z,44.40
2019-03-27T05:44:39.834Z,37.57
2019-03-27T05:45:44.802Z,42.57
2019-03-27T05:46:49.709Z,34.30
2019-03-27T05:47:59.950Z,47.07
2019-03-27T05:49:01.395Z,45.30
2019-03-27T05:50:07.080Z,43.00
2019-03-27T05:51:12.060Z,40.70
2019-03-27T05:52:16.941Z,42.30
2019-03-27T05:53:22.040Z,41.47
2019-03-27T05:54:26.955Z,41.50
2019-03-27T05:55:31.967Z,36.20
2019-03-27T05:56:37.113Z,46.17
2019-03-27T05:57:42.201Z,46.70
2019-03-27T05:58:47.091Z,37.87
2019-03-27T05:59:52.077Z,40.63
2019-03-27T06:00:57.071Z,37.87
2019-03-27T06:02:01.923Z,35.37
2019-03-27T06:03:06.796Z,36.33
2019-03-27T06:04:11.651Z,40.33
2019-03-27T06:05:16.531Z,38.17
2019-03-27T06:06:21.397Z,34.37
2019-03-27T06:07:26.297Z,38.73
2019-03-27T06:08:31.231Z,36.60
2019-03-27T06:09:36.135Z,36.27
2019-03-27T06:10:41.022Z,41.00
2019-03-27T06:11:45.893Z,42.83
2019-03-27T06:12:50.855Z,34.70
2019-03-27T06:13:55.726Z,42.13
2019-03-27T06:15:00.595Z,39.97
2019-03-27T06:16:05.496Z,34.40
2019-03-27T06:17:10.625Z,35.57
2019-03-27T06:18:15.517Z,32.00
2019-03-27T06:19:20.371Z,37.00
2019-03-27T06:20:25.351Z,35.40
2019-03-27T06:21:30.321Z,34.70
2019-03-27T06:22:35.263Z,36.10
2019-03-27T06:23:40.170Z,38.60
2019-03-27T06:24:45.093Z,36.90
2019-03-27T06:25:49.923Z,30.70
2019-03-27T06:26:54.799Z,38.97
2019-03-27T06:27:59.662Z,28.73
2019-03-27T06:29:04.632Z,36.13
2019-03-27T06:30:09.859Z,35.63
2019-03-27T06:31:14.735Z,44.10
2019-03-27T06:32:19.606Z,33.47
2019-03-27T06:33:24.492Z,41.57
2019-03-27T06:34:30.922Z,38.70
2019-03-27T06:35:35.780Z,47.70
2019-03-27T06:36:40.639Z,36.83
2019-03-27T06:37:45.514Z,36.70
2019-03-27T06:38:50.466Z,33.93
2019-03-27T06:39:55.442Z,39.60
2019-03-27T06:41:00.320Z,28.87
2019-03-27T06:42:05.304Z,32.03
2019-03-27T06:43:10.190Z,40.17
2019-03-27T06:44:15.076Z,34.13
2019-03-27T06:45:19.972Z,37.07
2019-03-27T06:46:24.842Z,36.03
2019-03-27T06:47:29.747Z,36.27
2019-03-27T06:48:34.599Z,30.80
2019-03-27T06:49:39.487Z,42.20
2019-03-27T06:50:44.431Z,32.57
2019-03-27T06:51:49.307Z,27.87
2019-03-27T06:52:54.209Z,31.47
2019-03-27T06:53:59.089Z,32.47
2019-03-27T06:55:06.134Z,34.20
2019-03-27T06:56:11.071Z,32.20
2019-03-27T06:57:15.965Z,28.47
2019-03-27T06:58:20.814Z,32.57
2019-03-27T06:59:25.834Z,28.70
2019-03-27T07:00:37.557Z,28.57
2019-03-27T07:01:42.589Z,29.60
2019-03-27T07:02:47.487Z,32.13
2019-03-27T07:03:52.395Z,30.90
2019-03-27T07:04:57.262Z,34.73
2019-03-27T07:06:02.261Z,34.43
2019-03-27T07:07:07.118Z,27.53
2019-03-27T07:08:12.071Z,27.47
2019-03-27T07:09:17.058Z,27.83
2019-03-27T07:10:21.896Z,27.20
2019-03-27T07:11:26.830Z,24.07
2019-03-27T07:12:31.753Z,28.03
2019-03-27T07:13:38.957Z,29.23
2019-03-27T07:14:43.851Z,37.33
2019-03-27T07:15:48.819Z,25.63
2019-03-27T07:16:53.731Z,26.47
2019-03-27T07:17:58.948Z,25.93
2019-03-27T07:19:03.924Z,28.77
2019-03-27T07:20:08.927Z,28.87
2019-03-27T07:21:13.795Z,25.63
2019-03-27T07:22:18.677Z,31.57
2019-03-27T07:23:23.575Z,25.97
2019-03-27T07:24:28.426Z,29.07
2019-03-27T07:25:33.298Z,28.10
2019-03-27T07:26:38.155Z,27.27
2019-03-27T07:27:43.026Z,21.90
2019-03-27T07:28:47.906Z,26.37
2019-03-27T07:29:52.910Z,22.60
2019-03-27T07:30:57.888Z,28.60
2019-03-27T07:32:02.890Z,27.57
2019-03-27T07:33:08.024Z,26.27
2019-03-27T07:34:12.956Z,23.40
2019-03-27T07:35:17.863Z,33.60
2019-03-27T07:36:22.756Z,24.40
2019-03-27T07:37:27.643Z,21.47
2019-03-27T07:38:32.574Z,26.33
2019-03-27T07:39:37.458Z,25.43
2019-03-27T07:40:42.475Z,22.17
2019-03-27T07:41:47.353Z,29.80
2019-03-27T07:42:52.302Z,25.10
2019-03-27T07:43:57.247Z,23.40
2019-03-27T07:45:02.155Z,22.53
2019-03-27T07:46:07.242Z,28.03
2019-03-27T07:47:12.322Z,21.43
2019-03-27T07:48:17.193Z,23.20
2019-03-27T07:49:22.285Z,25.10
2019-03-27T07:50:27.266Z,23.93
2019-03-27T07:51:32.379Z,14.43
2019-03-27T07:52:37.242Z,21.27
2019-03-27T07:53:42.248Z,19.57
2019-03-27T07:54:47.096Z,23.20
2019-03-27T07:55:52.056Z,16.97
2019-03-27T07:56:56.923Z,18.33
2019-03-27T07:58:01.997Z,20.87
2019-03-27T07:59:07.015Z,23.40
2019-03-27T08:00:15.496Z,23.10
2019-03-27T08:01:20.389Z,20.30
2019-03-27T08:02:25.396Z,17.50
2019-03-27T08:03:30.419Z,18.50
2019-03-27T08:04:35.319Z,23.97
2019-03-27T08:05:40.240Z,20.00
2019-03-27T08:06:45.427Z,20.50
2019-03-27T08:07:50.838Z,23.47
2019-03-27T08:08:55.737Z,18.97
2019-03-27T08:10:00.591Z,22.60
2019-03-27T08:11:05.563Z,17.00
2019-03-27T08:12:10.696Z,20.93
2019-03-27T08:13:15.643Z,19.30
2019-03-27T08:14:20.595Z,16.17
2019-03-27T08:15:25.651Z,15.33
2019-03-27T08:16:30.681Z,16.23
2019-03-27T08:17:35.844Z,16.97
2019-03-27T08:18:40.729Z,18.40
2019-03-27T08:19:45.627Z,18.93
2019-03-27T08:20:50.545Z,25.83
2019-03-27T08:21:55.474Z,18.27
2019-03-27T08:23:00.503Z,18.77
2019-03-27T08:24:05.504Z,15.90
2019-03-27T08:25:11.020Z,18.67
2019-03-27T08:26:15.969Z,17.93
2019-03-27T08:27:20.919Z,15.07
2019-03-27T08:28:25.864Z,16.00
2019-03-27T08:29:30.716Z,16.37
2019-03-27T08:30:35.779Z,16.70
2019-03-27T08:31:40.767Z,15.30
2019-03-27T08:32:45.651Z,16.73
2019-03-27T08:33:50.561Z,17.40
2019-03-27T08:34:55.477Z,18.90
2019-03-27T08:36:00.478Z,16.63
2019-03-27T08:37:05.448Z,19.07
2019-03-27T08:38:10.423Z,18.73
2019-03-27T08:39:15.276Z,17.23
2019-03-27T08:40:20.307Z,22.57
2019-03-27T08:41:25.217Z,13.73
2019-03-27T08:42:30.095Z,16.20
2019-03-27T08:43:34.953Z,17.47
2019-03-27T08:44:39.854Z,16.67
2019-03-27T08:45:44.841Z,19.27
2019-03-27T08:46:49.863Z,15.63
2019-03-27T08:47:54.776Z,12.60
2019-03-27T08:48:59.660Z,15.20
2019-03-27T08:50:05.256Z,13.93
2019-03-27T08:51:10.184Z,16.67
2019-03-27T08:52:15.244Z,16.23
2019-03-27T08:53:20.080Z,16.43
2019-03-27T08:54:24.993Z,12.70
2019-03-27T08:55:30.159Z,10.43
2019-03-27T08:56:35.010Z,13.33
2019-03-27T08:57:40.115Z,14.60
2019-03-27T08:58:45.107Z,16.93
2019-03-27T08:59:50.009Z,15.40
2019-03-27T09:00:56.190Z,11.77
2019-03-27T09:02:01.261Z,16.60
2019-03-27T09:03:06.255Z,14.77
2019-03-27T09:04:11.295Z,15.83
2019-03-27T09:05:16.309Z,14.60
2019-03-27T09:06:33.067Z,13.13
2019-03-27T09:07:27.888Z,14.00
2019-03-27T09:08:32.906Z,12.77
2019-03-27T09:09:37.942Z,14.13
2019-03-27T09:10:43.069Z,13.67
2019-03-27T09:11:48.300Z,19.50
2019-03-27T09:12:53.210Z,13.23
2019-03-27T09:13:58.170Z,15.93
2019-03-27T09:15:03.102Z,14.73
2019-03-27T09:16:08.133Z,13.13
2019-03-27T09:17:13.029Z,9.90
2019-03-27T09:18:17.991Z,15.43
2019-03-27T09:19:35.140Z,9.83
2019-03-27T09:20:29.547Z,12.23
2019-03-27T09:21:34.439Z,12.23
2019-03-27T09:22:39.298Z,13.17
2019-03-27T09:23:45.890Z,13.73
2019-03-27T09:24:51.183Z,12.00
2019-03-27T09:25:56.211Z,13.63
2019-03-27T09:27:01.236Z,13.73
2019-03-27T09:28:06.102Z,10.97
2019-03-27T09:29:11.075Z,14.13
2019-03-27T09:30:16.407Z,12.97
2019-03-27T09:31:21.283Z,12.23
2019-03-27T09:32:26.139Z,14.40
2019-03-27T09:33:31.035Z,12.23
2019-03-27T09:34:35.942Z,15.57
2019-03-27T09:35:40.971Z,13.13
2019-03-27T09:36:45.936Z,12.40
2019-03-27T09:37:50.898Z,14.03
2019-03-27T09:38:55.914Z,9.53
2019-03-27T09:40:00.816Z,11.67
2019-03-27T09:41:05.883Z,10.60
2019-03-27T09:42:10.900Z,10.00
2019-03-27T09:43:15.868Z,11.33
2019-03-27T09:44:20.853Z,12.63
2019-03-27T09:45:25.904Z,13.13
2019-03-27T09:46:30.883Z,9.53
2019-03-27T09:47:35.822Z,10.50
2019-03-27T09:48:40.839Z,9.43
2019-03-27T09:49:49.687Z,13.50
2019-03-27T09:50:52.374Z,8.90
2019-03-27T09:51:57.331Z,9.60
2019-03-27T09:53:02.206Z,9.07
2019-03-27T09:54:07.099Z,10.57
2019-03-27T09:55:12.285Z,8.57
2019-03-27T09:56:19.250Z,10.43
2019-03-27T09:57:24.029Z,7.97
2019-03-27T09:58:29.108Z,11.23
2019-03-27T09:59:34.069Z,9.33
2019-03-27T10:01:10.421Z,10.67
2019-03-27T10:02:15.471Z,11.07
2019-03-27T10:03:20.574Z,8.03
2019-03-27T10:04:25.640Z,8.10
2019-03-27T10:05:30.579Z,6.57
2019-03-27T10:06:39.033Z,11.23
2019-03-27T10:07:44.105Z,8.10
2019-03-27T10:08:49.129Z,10.70
2019-03-27T10:09:54.184Z,8.37
2019-03-27T10:10:59.166Z,11.70
2019-03-27T10:12:04.249Z,9.37
2019-03-27T10:13:09.199Z,8.33
2019-03-27T10:14:14.217Z,9.10
2019-03-27T10:15:19.265Z,8.23
2019-03-27T10:16:24.219Z,8.10
2019-03-27T10:17:29.258Z,12.27
2019-03-27T10:18:34.268Z,11.73
2019-03-27T10:19:39.214Z,6.30
2019-03-27T10:20:44.373Z,10.10
2019-03-27T10:21:49.277Z,11.53
2019-03-27T10:22:54.349Z,7.27
2019-03-27T10:23:59.244Z,8.87
2019-03-27T10:25:05.192Z,11.50
2019-03-27T10:26:10.265Z,8.47
2019-03-27T10:27:15.226Z,9.30
2019-03-27T10:28:20.226Z,10.87
2019-03-27T10:29:25.240Z,9.03
2019-03-27T10:30:30.251Z,11.17
2019-03-27T10:31:35.241Z,6.23
2019-03-27T10:32:40.278Z,10.00
2019-03-27T10:33:45.205Z,8.20
2019-03-27T10:34:50.190Z,12.13
2019-03-27T10:35:55.237Z,11.67
2019-03-27T10:37:00.090Z,8.13
2019-03-27T10:38:05.149Z,11.37
2019-03-27T10:39:10.162Z,9.60
2019-03-27T10:40:15.278Z,7.70
2019-03-27T10:41:20.319Z,13.67
2019-03-27T10:42:25.354Z,11.33
2019-03-27T10:43:30.526Z,10.07
2019-03-27T10:44:35.487Z,9.10
2019-03-27T10:45:40.614Z,11.50
2019-03-27T10:46:45.603Z,8.47
2019-03-27T10:47:50.475Z,7.23
2019-03-27T10:48:55.389Z,10.90
2019-03-27T10:50:00.410Z,12.47
2019-03-27T10:51:05.480Z,8.27
2019-03-27T10:52:10.706Z,9.87
2019-03-27T10:53:15.846Z,5.90
2019-03-27T10:54:20.856Z,8.13
2019-03-27T10:55:25.794Z,6.73
2019-03-27T10:56:30.794Z,9.40
2019-03-27T10:57:35.848Z,9.50
2019-03-27T10:58:40.797Z,8.23
2019-03-27T10:59:45.839Z,8.70
2019-03-27T11:00:50.915Z,6.83
2019-03-27T11:01:55.892Z,9.47
2019-03-27T11:03:00.847Z,11.90
2019-03-27T11:04:05.859Z,6.00
2019-03-27T11:05:11.422Z,10.43
2019-03-27T11:06:16.403Z,8.60
2019-03-27T11:07:21.264Z,8.57
2019-03-27T11:08:26.272Z,6.17
2019-03-27T11:09:31.204Z,9.40
2019-03-27T11:10:36.284Z,12.63
2019-03-27T11:11:41.222Z,8.73
2019-03-27T11:12:47.053Z,9.90
2019-03-27T11:13:51.934Z,9.27
2019-03-27T11:14:56.787Z,10.13
2019-03-27T11:16:02.175Z,8.57
2019-03-27T11:17:07.147Z,9.23
2019-03-27T11:18:12.150Z,9.80
2019-03-27T11:19:17.029Z,6.37
2019-03-27T11:20:30.973Z,10.20
2019-03-27T11:21:29.539Z,8.53
2019-03-27T11:22:34.443Z,10.77
2019-03-27T11:23:39.346Z,11.33
2019-03-27T11:24:44.323Z,13.97
2019-03-27T11:25:49.223Z,9.17
2019-03-27T11:26:54.163Z,12.63
2019-03-27T11:27:59.347Z,7.70
2019-03-27T11:29:04.379Z,7.53
2019-03-27T11:30:09.911Z,8.00
2019-03-27T11:31:14.923Z,9.00
2019-03-27T11:32:19.864Z,9.07
2019-03-27T11:33:24.862Z,11.77
2019-03-27T11:34:29.844Z,9.17
2019-03-27T11:35:34.708Z,9.13
2019-03-27T11:36:39.702Z,9.43
2019-03-27T11:37:44.663Z,11.20
2019-03-27T11:38:49.566Z,7.37
2019-03-27T11:39:54.511Z,7.90
2019-03-27T11:40:59.419Z,9.00
2019-03-27T11:42:04.521Z,8.37
2019-03-27T11:43:09.627Z,8.57
2019-03-27T11:44:14.494Z,8.07
2019-03-27T11:45:19.542Z,11.30
2019-03-27T11:46:25.080Z,13.77
2019-03-27T11:47:30.006Z,9.93
2019-03-27T11:48:34.893Z,11.50
2019-03-27T11:49:39.818Z,8.83
2019-03-27T11:50:45.592Z,11.17
2019-03-27T11:51:50.757Z,7.87
2019-03-27T11:52:55.788Z,7.83
2019-03-27T11:54:00.784Z,11.27
2019-03-27T11:55:06.343Z,8.87
2019-03-27T11:56:11.229Z,13.13
2019-03-27T11:57:16.087Z,9.20
2019-03-27T11:58:21.086Z,10.73
2019-03-27T11:59:26.167Z,9.87
2019-03-27T12:00:31.245Z,11.00
2019-03-27T12:01:40.807Z,9.40
2019-03-27T12:02:42.803Z,8.20
2019-03-27T12:03:47.736Z,12.93
2019-03-27T12:04:52.734Z,6.90
2019-03-27T12:05:57.700Z,10.23
2019-03-27T12:07:02.565Z,8.93
2019-03-27T12:08:07.485Z,11.17
2019-03-27T12:09:12.614Z,5.03
2019-03-27T12:10:17.851Z,6.83
2019-03-27T12:11:22.988Z,10.03
2019-03-27T12:12:28.078Z,8.73
2019-03-27T12:13:33.050Z,9.37
2019-03-27T12:14:37.912Z,7.07
2019-03-27T12:15:43.534Z,8.50
2019-03-27T12:16:50.002Z,10.63
2019-03-27T12:17:55.171Z,10.77
2019-03-27T12:19:00.174Z,5.97
2019-03-27T12:20:05.426Z,7.70
2019-03-27T12:21:10.443Z,11.47
2019-03-27T12:22:15.326Z,7.93
2019-03-27T12:23:20.442Z,5.67
2019-03-27T12:24:25.347Z,7.53
2019-03-27T12:25:30.347Z,10.10
2019-03-27T12:26:35.234Z,9.80
2019-03-27T12:27:40.122Z,7.13
2019-03-27T12:28:45.021Z,9.13
2019-03-27T12:29:49.915Z,6.63
2019-03-27T12:30:54.850Z,8.73
2019-03-27T12:31:59.830Z,7.77
2019-03-27T12:33:04.700Z,7.93
2019-03-27T12:34:09.603Z,9.87
2019-03-27T12:35:14.567Z,9.63
2019-03-27T12:36:19.491Z,11.40
2019-03-27T12:37:24.415Z,6.43
2019-03-27T12:38:29.392Z,7.70
2019-03-27T12:39:34.379Z,9.27
2019-03-27T12:40:39.359Z,7.60
2019-03-27T12:41:44.243Z,10.83
2019-03-27T12:42:49.115Z,8.63
2019-03-27T12:43:54.091Z,9.93
2019-03-27T12:45:01.559Z,8.50
2019-03-27T12:46:05.852Z,11.10
2019-03-27T12:47:10.778Z,8.73
2019-03-27T12:48:15.728Z,7.53
2019-03-27T12:49:20.594Z,14.30
2019-03-27T12:50:25.594Z,10.63
2019-03-27T12:51:30.493Z,10.10
2019-03-27T12:52:35.504Z,9.47
2019-03-27T12:53:40.353Z,10.80
2019-03-27T12:54:45.221Z,16.83
2019-03-27T12:55:50.206Z,11.10
2019-03-27T12:56:55.224Z,11.13
2019-03-27T12:58:00.435Z,11.23
2019-03-27T12:59:05.382Z,10.33
2019-03-27T13:00:11.526Z,12.37
2019-03-27T13:01:16.493Z,12.73
2019-03-27T13:02:21.369Z,13.80
2019-03-27T13:03:26.468Z,11.73
2019-03-27T13:04:31.387Z,15.87
2019-03-27T13:05:37.984Z,16.03
2019-03-27T13:06:42.982Z,10.63
2019-03-27T13:07:50.132Z,14.30
2019-03-27T13:08:54.470Z,13.30
2019-03-27T13:09:59.417Z,14.03
2019-03-27T13:11:04.645Z,16.97
2019-03-27T13:12:09.737Z,13.50
2019-03-27T13:13:14.679Z,13.63
2019-03-27T13:14:19.620Z,16.50
2019-03-27T13:15:24.494Z,16.37
2019-03-27T13:16:29.427Z,14.40
2019-03-27T13:17:34.504Z,16.00
2019-03-27T13:18:39.445Z,14.93
2019-03-27T13:19:44.378Z,12.20
2019-03-27T13:20:49.262Z,11.80
2019-03-27T13:21:54.486Z,15.87
2019-03-27T13:22:59.496Z,16.67
2019-03-27T13:24:04.491Z,14.03
2019-03-27T13:25:11.047Z,13.30
2019-03-27T13:26:15.941Z,15.20
2019-03-27T13:27:20.810Z,15.50
2019-03-27T13:28:25.691Z,14.47
2019-03-27T13:29:30.721Z,21.67
2019-03-27T13:30:35.643Z,17.83
2019-03-27T13:31:40.552Z,14.20
2019-03-27T13:32:45.529Z,14.17
2019-03-27T13:33:50.689Z,14.23
2019-03-27T13:34:55.668Z,14.50
2019-03-27T13:36:00.551Z,15.30
2019-03-27T13:37:05.539Z,15.40
2019-03-27T13:38:10.457Z,17.67
2019-03-27T13:39:15.418Z,16.27
2019-03-27T13:40:20.597Z,16.33
2019-03-27T13:41:25.554Z,16.07
2019-03-27T13:42:30.557Z,18.47
2019-03-27T13:43:35.429Z,15.47
2019-03-27T13:44:40.307Z,14.40
2019-03-27T13:45:45.188Z,17.97
2019-03-27T13:46:50.177Z,13.80
2019-03-27T13:47:55.223Z,15.53
2019-03-27T13:49:00.110Z,15.33
2019-03-27T13:50:07.471Z,15.70
2019-03-27T13:51:12.781Z,14.17
2019-03-27T13:52:17.766Z,16.57
2019-03-27T13:53:22.774Z,16.07
2019-03-27T13:54:27.656Z,14.50
2019-03-27T13:55:35.141Z,12.33
2019-03-27T13:56:39.127Z,13.53
2019-03-27T13:57:44.067Z,13.33
2019-03-27T13:58:49.394Z,15.90
2019-03-27T13:59:54.311Z,13.57
2019-03-27T14:00:59.465Z,13.03
2019-03-27T14:02:04.455Z,13.13
2019-03-27T14:03:09.471Z,12.77